Time;durP1;ratioP1;P1;durP2;ratioP2;P2;SDS_P1;SDS_P2;PMS_P1;PMS_P2;Temp;Humidity;BMP_temperature;BMP_pressure;BME280_temperature;BME280_humidity;BME280_pressure;Samples;Min_cycle;Max_cycle;Signal;HPM_P1;HPM_P2
2021/04/27 00:00:45;;;;;;;9.23;3.70;;;5.20;99.90;;;;;;5113006;28;20495;-56
2021/04/27 00:03:12;;;;;;;10.75;3.72;;;5.10;99.90;;;;;;5112961;28;20047;-56
2021/04/27 00:05:38;;;;;;;4.55;2.92;;;5.10;99.90;;;;;;5113341;28;20076;-56
2021/04/27 00:08:04;;;;;;;9.13;3.88;;;5.10;99.90;;;;;;5113194;28;20040;-57
2021/04/27 00:10:30;;;;;;;9.95;3.47;;;5.10;99.90;;;;;;5113258;28;20082;-56
2021/04/27 00:12:56;;;;;;;9.63;3.40;;;5.20;99.90;;;;;;5112871;28;20043;-56
2021/04/27 00:15:25;;;;;;;8.52;3.30;;;5.30;99.90;;;;;;5113104;28;20048;-57
2021/04/27 00:17:52;;;;;;;7.00;3.42;;;5.20;99.90;;;;;;5112618;28;20039;-56
2021/04/27 00:20:21;;;;;;;6.40;3.25;;;5.20;99.90;;;;;;5112766;28;20501;-56
2021/04/27 00:22:47;;;;;;;10.68;3.35;;;5.20;99.90;;;;;;5112867;28;20055;-56
2021/04/27 00:25:13;;;;;;;7.63;3.58;;;5.30;99.90;;;;;;5112488;28;20063;-56
2021/04/27 00:27:40;;;;;;;7.30;3.47;;;5.40;99.90;;;;;;5112568;28;20051;-56
2021/04/27 00:30:07;;;;;;;9.40;2.92;;;5.20;99.90;;;;;;5113036;28;20070;-56
2021/04/27 00:32:33;;;;;;;7.50;3.35;;;5.20;99.90;;;;;;5112622;28;20039;-56
2021/04/27 00:34:59;;;;;;;9.02;2.90;;;5.20;99.90;;;;;;5112717;28;20046;-56
2021/04/27 00:37:25;;;;;;;9.05;3.03;;;5.20;99.90;;;;;;5112605;28;20040;-57
2021/04/27 00:39:51;;;;;;;9.50;3.35;;;5.20;99.90;;;;;;5112630;28;20051;-56
2021/04/27 00:42:17;;;;;;;6.25;2.88;;;5.20;99.90;;;;;;5112195;28;20562;-56
2021/04/27 00:44:42;;;;;;;5.57;2.80;;;5.20;99.90;;;;;;5112494;28;20039;-56
2021/04/27 00:47:08;;;;;;;5.72;2.95;;;5.20;99.90;;;;;;5112575;28;20087;-57
2021/04/27 00:49:34;;;;;;;7.07;2.95;;;5.20;99.90;;;;;;5112609;28;20370;-56
2021/04/27 00:52:00;;;;;;;7.32;3.40;;;5.20;99.90;;;;;;5112295;28;20104;-57
2021/04/27 00:54:26;;;;;;;7.95;3.10;;;5.20;99.90;;;;;;5112218;28;20470;-56
2021/04/27 00:56:52;;;;;;;6.93;3.03;;;5.20;99.90;;;;;;5112438;28;20370;-57
2021/04/27 00:59:18;;;;;;;8.45;3.47;;;5.10;99.90;;;;;;5112603;28;20146;-56
2021/04/27 01:01:45;;;;;;;5.35;3.10;;;5.10;99.90;;;;;;5112331;28;20073;-56
2021/04/27 01:04:10;;;;;;;9.25;3.63;;;5.10;99.90;;;;;;5112327;28;20485;-56
2021/04/27 01:06:37;;;;;;;9.25;3.38;;;5.20;99.90;;;;;;5112361;28;20494;-56
2021/04/27 01:09:19;;;;;;;9.90;4.07;;;5.20;99.90;;;;;;5093944;28;20058;-56
2021/04/27 01:11:57;;;;;;;10.93;4.40;;;5.20;99.90;;;;;;5112296;28;20398;-57
2021/04/27 01:14:28;;;;;;;9.50;5.20;;;5.10;99.90;;;;;;5093572;28;20062;-56
2021/04/27 01:17:02;;;;;;;13.25;5.35;;;5.10;99.90;;;;;;5112307;28;20044;-57
2021/04/27 01:19:43;;;;;;;12.70;6.30;;;5.10;99.90;;;;;;5112056;28;20077;-56
2021/04/27 01:22:12;;;;;;;14.25;5.82;;;5.10;99.90;;;;;;5112217;28;20044;-56
2021/04/27 01:24:51;;;;;;;12.55;6.03;;;5.10;99.90;;;;;;5111981;28;20062;-56
2021/04/27 01:27:19;;;;;;;12.63;5.05;;;5.00;99.90;;;;;;5111789;28;20054;-56
2021/04/27 01:29:45;;;;;;;13.73;5.32;;;5.00;99.90;;;;;;5112489;28;20047;-56
2021/04/27 01:32:12;;;;;;;8.15;4.93;;;5.00;99.90;;;;;;5115405;28;20044;-56
2021/04/27 01:34:40;;;;;;;10.57;4.93;;;5.00;99.90;;;;;;5115610;28;20048;-56
2021/04/27 01:37:09;;;;;;;7.93;4.90;;;5.00;99.90;;;;;;5115624;28;20519;-56
2021/04/27 01:39:35;;;;;;;8.38;4.32;;;4.90;99.90;;;;;;5116107;28;20161;-56
2021/04/27 01:42:04;;;;;;;9.55;4.85;;;4.90;99.90;;;;;;5115500;28;20100;-56
2021/04/27 01:44:31;;;;;;;8.15;4.43;;;4.90;99.90;;;;;;5115596;28;20044;-56
2021/04/27 01:46:57;;;;;;;10.98;4.80;;;4.80;99.90;;;;;;5115720;28;20140;-56
2021/04/27 01:49:24;;;;;;;8.80;4.78;;;4.80;99.90;;;;;;5115526;28;20359;-56
2021/04/27 01:51:51;;;;;;;9.48;4.63;;;4.80;99.90;;;;;;5115369;28;20473;-56
2021/04/27 01:54:28;;;;;;;10.70;4.25;;;4.70;99.90;;;;;;5115328;28;20035;-56
2021/04/27 01:56:55;;;;;;;10.30;4.70;;;4.70;99.90;;;;;;5115121;28;20047;-56
2021/04/27 01:59:21;;;;;;;9.63;4.10;;;4.60;99.90;;;;;;5115740;28;20047;-56
2021/04/27 02:01:47;;;;;;;14.10;4.05;;;4.60;99.90;;;;;;5096167;28;20043;-56
2021/04/27 02:04:24;;;;;;;6.47;3.50;;;4.50;99.90;;;;;;5115233;28;20086;-56
2021/04/27 02:06:51;;;;;;;5.63;3.97;;;4.70;99.90;;;;;;5115031;28;20046;-56
2021/04/27 02:09:17;;;;;;;10.13;4.15;;;4.60;99.90;;;;;;5115108;28;20040;-56
2021/04/27 02:11:49;;;;;;;9.55;4.10;;;4.50;99.90;;;;;;5115554;28;20465;-56
2021/04/27 02:14:15;;;;;;;8.95;4.82;;;4.60;99.90;;;;;;5115164;28;20047;-56
2021/04/27 02:16:56;;;;;;;7.10;3.40;;;4.60;99.90;;;;;;5114974;28;20071;-56
2021/04/27 02:19:24;;;;;;;5.75;3.80;;;4.60;99.90;;;;;;5115169;28;20043;-56
2021/04/27 02:21:53;;;;;;;8.60;4.07;;;4.70;99.90;;;;;;5097109;28;20547;-57
2021/04/27 02:24:20;;;;;;;7.72;4.18;;;4.60;99.90;;;;;;5115129;28;20485;-56
2021/04/27 02:26:46;;;;;;;9.00;4.00;;;4.50;99.90;;;;;;5114858;28;20053;-56
2021/04/27 02:29:12;;;;;;;9.07;3.95;;;4.50;99.90;;;;;;5115169;28;20083;-56
2021/04/27 02:31:39;;;;;;;6.93;4.07;;;4.50;99.90;;;;;;5114953;28;20473;-56
2021/04/27 02:34:05;;;;;;;7.80;3.83;;;4.50;99.90;;;;;;5114926;28;20036;-56
2021/04/27 02:36:37;;;;;;;8.23;4.22;;;4.50;99.90;;;;;;5114341;28;20534;-56
2021/04/27 02:39:08;;;;;;;6.93;3.90;;;4.50;99.90;;;;;;5114797;28;20053;-56
2021/04/27 02:41:35;;;;;;;9.40;4.40;;;4.60;99.90;;;;;;5114233;28;20111;-55
2021/04/27 02:44:02;;;;;;;7.95;4.38;;;4.50;99.90;;;;;;5114626;28;20039;-56
2021/04/27 02:46:29;;;;;;;6.43;4.47;;;4.50;99.90;;;;;;5114340;28;20143;-57
2021/04/27 02:48:55;;;;;;;13.77;4.65;;;4.60;99.90;;;;;;5114590;28;20046;-56
2021/04/27 02:51:21;;;;;;;7.63;4.88;;;4.50;99.90;;;;;;5114330;28;20473;-56
2021/04/27 02:53:47;;;;;;;10.27;4.72;;;4.50;99.90;;;;;;5114489;28;20134;-56
2021/04/27 02:56:12;;;;;;;9.38;4.75;;;4.50;99.90;;;;;;5114388;28;20043;-56
2021/04/27 02:58:39;;;;;;;10.65;4.65;;;4.50;99.90;;;;;;5114375;28;20429;-56
2021/04/27 03:01:04;;;;;;;8.68;5.10;;;4.50;99.90;;;;;;5114195;28;20050;-56
2021/04/27 03:03:32;;;;;;;7.78;5.20;;;4.40;99.90;;;;;;5114163;28;20126;-56
2021/04/27 03:05:59;;;;;;;9.52;4.90;;;4.30;99.90;;;;;;5114007;28;20039;-56
2021/04/27 03:08:25;;;;;;;9.77;5.28;;;4.30;99.90;;;;;;5114364;28;20047;-56
2021/04/27 03:10:52;;;;;;;9.55;4.57;;;4.40;99.90;;;;;;5114035;28;20043;-56
2021/04/27 03:13:18;;;;;;;6.35;4.70;;;4.30;99.90;;;;;;5113986;28;20156;-56
2021/04/27 03:15:44;;;;;;;11.30;5.63;;;4.30;99.90;;;;;;5114222;28;20039;-56
2021/04/27 03:18:10;;;;;;;10.02;5.18;;;4.30;99.90;;;;;;5113821;28;20059;-56
2021/04/27 03:20:36;;;;;;;8.93;4.68;;;4.20;99.90;;;;;;5113829;28;20043;-57
2021/04/27 03:23:02;;;;;;;11.40;5.70;;;4.20;99.90;;;;;;5113587;28;20066;-56
2021/04/27 03:25:28;;;;;;;8.20;5.28;;;4.20;99.90;;;;;;5113710;28;20047;-56
2021/04/27 03:27:53;;;;;;;7.95;5.50;;;4.20;99.90;;;;;;5113348;28;20550;-56
2021/04/27 03:30:19;;;;;;;10.23;5.68;;;4.10;99.90;;;;;;5113735;28;20039;-56
2021/04/27 03:32:45;;;;;;;12.38;5.60;;;4.10;99.90;;;;;;5113351;28;20066;-56
2021/04/27 03:35:12;;;;;;;12.38;5.97;;;4.00;99.90;;;;;;5113268;28;20035;-56
2021/04/27 03:37:39;;;;;;;9.45;5.65;;;4.00;99.90;;;;;;5113469;28;20047;-56
2021/04/27 03:40:07;;;;;;;11.60;5.78;;;3.90;99.90;;;;;;5113293;28;20050;-55
2021/04/27 03:42:33;;;;;;;10.35;5.43;;;3.80;99.90;;;;;;5113054;28;20046;-56
2021/04/27 03:44:59;;;;;;;10.30;5.25;;;3.90;99.90;;;;;;5113074;28;20043;-56
2021/04/27 03:47:24;;;;;;;8.57;5.85;;;3.90;99.90;;;;;;5113594;28;20051;-56
2021/04/27 03:49:50;;;;;;;8.38;5.68;;;3.80;99.90;;;;;;5112964;28;20043;-56
2021/04/27 03:52:16;;;;;;;11.65;5.30;;;3.70;99.90;;;;;;5113314;28;20462;-56
2021/04/27 03:54:42;;;;;;;7.63;5.65;;;3.70;99.90;;;;;;5112532;28;20050;-56
2021/04/27 03:57:08;;;;;;;10.98;5.68;;;3.60;99.90;;;;;;5113001;28;20051;-56
2021/04/27 03:59:34;;;;;;;10.90;5.53;;;3.60;99.90;;;;;;5113160;28;20058;-56
2021/04/27 04:02:01;;;;;;;7.95;5.50;;;3.60;99.90;;;;;;5112695;28;20140;-56
2021/04/27 04:04:26;;;;;;;15.20;6.05;;;3.60;99.90;;;;;;5112773;28;20106;-56
2021/04/27 04:06:53;;;;;;;9.13;5.25;;;3.60;99.90;;;;;;5112816;28;20467;-56
2021/04/27 04:09:19;;;;;;;9.80;6.20;;;3.50;99.90;;;;;;5112737;28;20047;-56
2021/04/27 04:11:45;;;;;;;9.85;5.68;;;3.50;99.90;;;;;;5112873;28;20888;-56
2021/04/27 04:14:11;;;;;;;14.32;5.93;;;3.50;99.90;;;;;;5113137;28;20043;-56
2021/04/27 04:16:37;;;;;;;10.73;5.78;;;3.50;99.90;;;;;;5112986;28;20036;-56
2021/04/27 04:19:03;;;;;;;11.98;6.07;;;3.40;99.90;;;;;;5112508;28;20042;-56
2021/04/27 04:21:29;;;;;;;12.48;5.95;;;3.50;99.90;;;;;;5094587;28;20469;-56
2021/04/27 04:23:56;;;;;;;8.85;5.75;;;3.50;99.90;;;;;;5112836;28;20073;-56
2021/04/27 04:26:22;;;;;;;10.68;5.85;;;3.40;99.90;;;;;;5094048;28;20489;-56
2021/04/27 04:28:48;;;;;;;9.75;5.78;;;3.40;99.90;;;;;;5112499;28;20047;-56
2021/04/27 04:31:14;;;;;;;10.80;5.97;;;3.40;99.90;;;;;;5112452;28;20051;-56
2021/04/27 04:33:45;;;;;;;11.68;5.72;;;3.40;99.90;;;;;;5112342;28;20047;-56
2021/04/27 04:36:11;;;;;;;12.18;5.95;;;3.40;99.90;;;;;;5112619;28;20119;-56
2021/04/27 04:38:37;;;;;;;12.38;5.57;;;3.40;99.90;;;;;;5112259;28;20058;-56
2021/04/27 04:41:03;;;;;;;8.73;5.55;;;3.40;99.90;;;;;;5112366;28;20032;-56
2021/04/27 04:43:29;;;;;;;8.77;5.70;;;3.40;99.90;;;;;;5112290;28;20071;-56
2021/04/27 04:45:54;;;;;;;6.65;5.43;;;3.40;99.90;;;;;;5112154;28;20071;-56
2021/04/27 04:48:20;;;;;;;12.52;5.57;;;3.50;99.90;;;;;;5112214;28;20047;-56
2021/04/27 04:50:46;;;;;;;12.48;6.00;;;3.50;99.90;;;;;;5112444;28;20089;-56
2021/04/27 04:53:12;;;;;;;7.90;5.22;;;3.50;99.90;;;;;;5112471;28;20044;-57
2021/04/27 04:55:38;;;;;;;7.90;5.75;;;3.60;99.90;;;;;;5112337;28;20051;-56
2021/04/27 04:58:04;;;;;;;13.63;5.38;;;3.60;99.90;;;;;;5112359;28;20054;-56
2021/04/27 05:00:31;;;;;;;11.82;6.05;;;3.60;99.90;;;;;;5093786;28;20055;-56
2021/04/27 05:02:56;;;;;;;9.77;5.30;;;3.70;99.90;;;;;;5111792;28;20538;-56
2021/04/27 05:05:24;;;;;;;9.02;4.95;;;3.70;99.90;;;;;;5112688;28;20043;-56
2021/04/27 05:07:58;;;;;;;8.27;5.25;;;3.80;99.90;;;;;;5116201;28;20050;-56
2021/04/27 05:10:24;;;;;;;9.43;5.90;;;3.80;99.90;;;;;;5116144;28;20118;-56
2021/04/27 05:12:50;;;;;;;9.02;5.22;;;3.90;99.90;;;;;;5116358;28;20131;-56
2021/04/27 05:15:16;;;;;;;8.35;5.10;;;4.00;99.90;;;;;;5116037;28;20388;-56
2021/04/27 05:17:43;;;;;;;11.68;5.40;;;4.10;99.90;;;;;;5115996;28;20042;-56
2021/04/27 05:20:09;;;;;;;9.13;4.93;;;4.10;99.90;;;;;;5115804;28;20046;-56
2021/04/27 05:22:35;;;;;;;18.73;5.35;;;4.20;99.90;;;;;;5115922;28;20043;-56
2021/04/27 05:25:02;;;;;;;9.02;4.80;;;4.20;99.90;;;;;;5115880;28;20043;-56
2021/04/27 05:27:28;;;;;;;7.25;4.80;;;4.30;99.90;;;;;;5115454;28;20047;-56
2021/04/27 05:29:54;;;;;;;7.60;4.68;;;4.40;99.90;;;;;;5115968;28;20100;-56
2021/04/27 05:32:20;;;;;;;9.05;4.20;;;4.50;99.90;;;;;;5115429;28;20072;-56
2021/04/27 05:34:46;;;;;;;10.82;4.82;;;4.60;99.90;;;;;;5115645;28;20048;-56
2021/04/27 05:37:11;;;;;;;7.57;4.35;;;4.70;99.90;;;;;;5097718;28;20054;-56
2021/04/27 05:39:37;;;;;;;10.60;4.38;;;4.80;99.90;;;;;;5115788;28;20067;-56
2021/04/27 05:42:04;;;;;;;6.63;4.18;;;4.90;99.90;;;;;;5115628;28;20093;-56
2021/04/27 05:44:30;;;;;;;4.45;3.80;;;4.90;99.90;;;;;;5115488;28;20059;-55
2021/04/27 05:46:55;;;;;;;7.40;4.20;;;5.00;99.90;;;;;;5115599;28;20035;-56
2021/04/27 05:49:22;;;;;;;6.40;3.80;;;5.00;99.90;;;;;;5115561;28;20044;-56
2021/04/27 05:51:48;;;;;;;8.23;3.67;;;5.10;99.10;;;;;;5115458;28;20048;-56
2021/04/27 05:54:14;;;;;;;5.65;3.42;;;5.30;98.90;;;;;;5115337;28;20042;-55
2021/04/27 05:56:40;;;;;;;6.93;3.60;;;5.40;99.00;;;;;;5115152;28;20040;-56
2021/04/27 05:59:06;;;;;;;5.65;3.67;;;5.60;99.00;;;;;;5115069;28;20063;-57
2021/04/27 06:01:32;;;;;;;5.88;3.35;;;5.70;98.20;;;;;;5115303;28;20131;-56
2021/04/27 06:03:59;;;;;;;7.40;3.38;;;5.80;98.40;;;;;;5115084;28;20062;-56
2021/04/27 06:06:25;;;;;;;3.75;3.28;;;6.10;98.10;;;;;;5115140;28;20043;-56
2021/04/27 06:08:50;;;;;;;4.15;2.67;;;6.20;97.10;;;;;;5114965;28;20389;-56
2021/04/27 06:11:16;;;;;;;6.32;3.10;;;6.30;96.90;;;;;;5115303;28;20491;-56
2021/04/27 06:13:42;;;;;;;3.08;2.47;;;6.50;96.00;;;;;;5115068;28;20044;-56
2021/04/27 06:16:08;;;;;;;4.38;2.63;;;6.70;95.70;;;;;;5114738;28;20093;-56
2021/04/27 06:18:34;;;;;;;6.20;2.72;;;6.90;96.00;;;;;;5115004;28;20435;-56
2021/04/27 06:21:00;;;;;;;3.92;3.03;;;6.90;95.10;;;;;;5114662;28;20089;-56
2021/04/27 06:23:26;;;;;;;6.28;2.67;;;7.00;95.10;;;;;;5114883;28;20552;-56
2021/04/27 06:25:53;;;;;;;4.53;2.60;;;7.30;95.00;;;;;;5114463;28;20062;-56
2021/04/27 06:28:19;;;;;;;4.40;2.55;;;7.40;94.10;;;;;;5114794;28;20040;-56
2021/04/27 06:30:45;;;;;;;5.30;3.20;;;7.60;93.00;;;;;;5114792;28;20092;-56
2021/04/27 06:33:11;;;;;;;7.50;2.80;;;7.70;93.20;;;;;;5114489;28;20035;-56
2021/04/27 06:35:37;;;;;;;3.78;2.35;;;8.00;93.60;;;;;;5114659;28;20130;-56
2021/04/27 06:38:04;;;;;;;6.55;2.80;;;8.10;92.80;;;;;;5114577;28;20058;-56
2021/04/27 06:40:31;;;;;;;3.97;2.60;;;8.20;92.60;;;;;;5114544;28;20108;-56
2021/04/27 06:42:57;;;;;;;5.40;2.65;;;8.30;91.60;;;;;;5096617;28;20058;-56
2021/04/27 06:45:23;;;;;;;6.03;2.75;;;8.50;92.30;;;;;;5114344;28;20036;-56
2021/04/27 06:47:48;;;;;;;6.88;2.60;;;8.60;91.50;;;;;;5114181;28;20035;-57
2021/04/27 06:50:16;;;;;;;3.05;2.30;;;8.90;91.10;;;;;;5114266;28;20462;-56
2021/04/27 06:52:45;;;;;;;3.53;2.30;;;9.10;89.50;;;;;;5113721;28;20043;-56
2021/04/27 06:55:12;;;;;;;6.85;2.30;;;9.40;89.90;;;;;;5113897;28;20149;-56
2021/04/27 06:57:38;;;;;;;4.38;2.15;;;9.30;89.00;;;;;;5113975;28;20043;-56
2021/04/27 07:00:07;;;;;;;10.80;2.70;;;9.50;87.00;;;;;;5113930;28;20043;-56
2021/04/27 07:02:33;;;;;;;3.72;1.98;;;9.50;87.40;;;;;;5114216;28;20104;-56
2021/04/27 07:04:59;;;;;;;4.53;2.10;;;10.10;86.70;;;;;;5113822;28;20035;-56
2021/04/27 07:07:26;;;;;;;3.03;1.90;;;10.40;85.90;;;;;;5113784;28;20043;-57
2021/04/27 07:09:52;;;;;;;3.45;2.03;;;10.50;82.40;;;;;;5113550;28;20039;-57
2021/04/27 07:12:17;;;;;;;3.22;1.90;;;10.50;81.60;;;;;;5113902;28;20067;-57
2021/04/27 07:14:43;;;;;;;3.60;2.17;;;10.40;82.00;;;;;;5113734;28;20440;-57
2021/04/27 07:17:09;;;;;;;4.28;1.70;;;10.60;83.30;;;;;;5113669;28;20100;-57
2021/04/27 07:19:35;;;;;;;4.68;2.17;;;10.70;82.60;;;;;;5113776;28;20042;-57
2021/04/27 07:22:01;;;;;;;2.63;1.80;;;10.70;80.80;;;;;;5113303;28;20044;-57
2021/04/27 07:24:27;;;;;;;5.07;2.45;;;11.00;80.80;;;;;;5113640;28;20036;-58
2021/04/27 07:26:53;;;;;;;5.45;2.60;;;11.00;79.80;;;;;;5113191;28;20078;-58
2021/04/27 07:29:20;;;;;;;7.70;2.03;;;11.20;79.60;;;;;;5112451;28;20085;-57
2021/04/27 07:31:46;;;;;;;4.53;2.17;;;11.30;79.20;;;;;;5095239;28;20092;-57
2021/04/27 07:34:12;;;;;;;7.38;1.98;;;11.50;79.90;;;;;;5113116;28;20047;-57
2021/04/27 07:36:38;;;;;;;4.13;2.33;;;11.60;78.20;;;;;;5113022;28;20523;-58
2021/04/27 07:39:06;;;;;;;3.75;2.35;;;11.80;76.70;;;;;;5112786;28;20092;-57
2021/04/27 07:41:33;;;;;;;5.22;2.28;;;11.80;76.90;;;;;;5112861;28;20503;-57
2021/04/27 07:43:59;;;;;;;5.75;1.92;;;11.90;75.10;;;;;;5113103;28;20044;-57
2021/04/27 07:46:25;;;;;;;4.63;1.80;;;12.00;72.30;;;;;;5112993;28;20044;-58
2021/04/27 07:48:51;;;;;;;2.80;2.00;;;12.30;73.00;;;;;;5112852;28;20039;-57
2021/04/27 07:51:17;;;;;;;6.55;2.33;;;12.90;74.90;;;;;;5112785;28;20553;-58
2021/04/27 07:53:43;;;;;;;5.38;2.05;;;13.00;73.20;;;;;;5112830;28;20168;-58
2021/04/27 07:56:08;;;;;;;3.78;2.05;;;12.90;72.60;;;;;;5112989;28;20473;-57
2021/04/27 07:58:34;;;;;;;5.45;2.33;;;12.70;70.20;;;;;;5112873;28;20043;-57
2021/04/27 08:01:01;;;;;;;7.15;2.20;;;13.00;68.90;;;;;;5112774;28;20092;-57
2021/04/27 08:03:27;;;;;;;11.40;1.75;;;12.80;68.70;;;;;;5112889;28;20035;-58
2021/04/27 08:05:53;;;;;;;5.32;1.80;;;13.50;70.00;;;;;;5112749;28;20066;-58
2021/04/27 08:08:20;;;;;;;4.88;2.20;;;14.10;69.10;;;;;;5112502;28;20473;-58
2021/04/27 08:10:46;;;;;;;4.15;1.88;;;13.80;66.20;;;;;;5112571;28;20073;-58
2021/04/27 08:13:12;;;;;;;4.35;1.90;;;14.10;67.20;;;;;;5112539;28;20059;-57
2021/04/27 08:15:40;;;;;;;3.03;2.00;;;14.20;65.00;;;;;;5112907;28;20086;-58
2021/04/27 08:18:06;;;;;;;6.53;2.28;;;14.10;64.70;;;;;;5112411;28;20046;-57
2021/04/27 08:20:33;;;;;;;3.30;2.30;;;14.30;63.10;;;;;;5112514;28;20044;-58
2021/04/27 08:22:59;;;;;;;6.18;2.25;;;14.30;62.00;;;;;;5112452;28;20047;-58
2021/04/27 08:25:25;;;;;;;4.45;2.03;;;14.30;60.10;;;;;;5112271;28;20032;-58
2021/04/27 08:27:51;;;;;;;4.80;2.00;;;14.80;61.60;;;;;;5112296;28;20122;-58
2021/04/27 08:30:20;;;;;;;8.30;2.47;;;14.60;57.50;;;;;;5112423;28;20047;-58
2021/04/27 08:32:47;;;;;;;2.67;2.00;;;15.00;59.00;;;;;;5112205;28;20546;-58
2021/04/27 08:35:13;;;;;;;10.18;1.98;;;15.20;59.80;;;;;;5112003;28;20043;-59
2021/04/27 08:37:40;;;;;;;6.57;2.30;;;15.10;56.40;;;;;;5112222;28;20113;-59
2021/04/27 08:40:07;;;;;;;3.67;2.28;;;15.00;57.50;;;;;;5114650;28;20035;-58
2021/04/27 08:42:35;;;;;;;5.53;2.42;;;14.80;57.50;;;;;;5116408;28;20067;-58
2021/04/27 08:45:03;;;;;;;4.10;2.15;;;14.90;56.60;;;;;;5116650;28;20089;-58
2021/04/27 08:47:29;;;;;;;7.28;2.30;;;15.10;57.60;;;;;;5116502;28;20039;-58
2021/04/27 08:49:55;;;;;;;5.70;2.60;;;15.10;55.00;;;;;;5116035;28;20044;-58
2021/04/27 08:52:21;;;;;;;3.70;2.42;;;15.30;55.80;;;;;;5116337;28;20366;-58
2021/04/27 08:54:47;;;;;;;6.97;2.97;;;15.50;54.50;;;;;;5097988;28;20038;-58
2021/04/27 08:57:13;;;;;;;3.65;2.67;;;15.30;54.40;;;;;;5116012;28;20044;-58
2021/04/27 08:59:40;;;;;;;5.63;2.22;;;15.30;53.70;;;;;;5116028;28;20051;-58
2021/04/27 09:02:06;;;;;;;4.53;2.20;;;15.30;55.00;;;;;;5115814;28;20508;-58
2021/04/27 09:04:43;;;;;;;4.47;2.40;;;15.20;53.40;;;;;;5115664;28;20048;-58
2021/04/27 09:07:14;;;;;;;3.85;2.10;;;15.40;52.70;;;;;;5116393;28;20189;-58
2021/04/27 09:09:42;;;;;;;5.43;2.22;;;15.20;52.10;;;;;;5116040;28;20430;-58
2021/04/27 09:12:08;;;;;;;3.95;2.05;;;15.50;52.70;;;;;;5115571;28;20588;-58
2021/04/27 09:14:36;;;;;;;3.75;1.90;;;15.80;53.40;;;;;;5115767;28;20040;-58
2021/04/27 09:17:06;;;;;;;5.22;2.30;;;15.90;51.20;;;;;;5115957;28;20040;-58
2021/04/27 09:19:41;;;;;;;6.03;2.25;;;15.70;49.50;;;;;;5115528;28;20046;-58
2021/04/27 09:22:19;;;;;;;3.75;2.40;;;16.00;52.90;;;;;;5115791;28;20035;-58
2021/04/27 09:24:56;;;;;;;6.20;2.15;;;15.80;48.30;;;;;;5115597;28;20043;-58
2021/04/27 09:27:44;;;;;;;5.32;2.08;;;15.60;50.50;;;;;;5111726;28;20052;-59
2021/04/27 09:30:18;;;;;;;4.00;2.80;;;16.00;48.50;;;;;;5113689;28;20051;-59
2021/04/27 09:32:52;;;;;;;3.90;2.33;;;16.10;47.10;;;;;;5114665;28;20039;-59
2021/04/27 09:35:26;;;;;;;3.20;1.90;;;16.30;48.40;;;;;;5114574;28;20043;-59
2021/04/27 09:38:15;;;;;;;8.75;2.63;;;16.00;45.70;;;;;;5097088;28;20035;-58
2021/04/27 09:40:44;;;;;;;7.60;2.60;;;16.20;47.60;;;;;;5115536;28;20039;-59
2021/04/27 09:43:10;;;;;;;5.25;2.35;;;16.10;46.30;;;;;;5115513;28;20122;-59
2021/04/27 09:45:44;;;;;;;4.25;2.15;;;16.30;48.50;;;;;;5115453;28;20131;-60
2021/04/27 09:48:10;;;;;;;3.80;1.98;;;16.30;45.30;;;;;;5115417;28;20052;-59
2021/04/27 09:50:37;;;;;;;4.10;2.05;;;16.00;47.00;;;;;;5096407;28;20071;-58
2021/04/27 09:53:03;;;;;;;2.40;1.60;;;16.10;46.90;;;;;;5115009;28;20046;-59
2021/04/27 09:55:34;;;;;;;2.92;2.10;;;16.10;46.80;;;;;;5096991;28;20481;-59
2021/04/27 09:58:01;;;;;;;4.47;2.00;;;16.30;44.70;;;;;;5114866;28;20039;-59
2021/04/27 10:00:33;;;;;;;3.45;1.75;;;16.40;45.30;;;;;;5115338;28;20047;-59
2021/04/27 10:03:07;;;;;;;3.20;2.00;;;16.90;45.90;;;;;;5114236;28;20541;-58
2021/04/27 10:05:34;;;;;;;5.90;2.13;;;16.40;42.70;;;;;;5114739;28;20047;-58
2021/04/27 10:08:02;;;;;;;3.08;1.98;;;16.40;44.60;;;;;;5115092;28;20108;-59
2021/04/27 10:10:30;;;;;;;13.35;2.35;;;16.60;45.90;;;;;;5115002;28;20047;-59
2021/04/27 10:13:02;;;;;;;4.13;2.35;;;16.50;43.40;;;;;;5115620;28;20169;-59
2021/04/27 10:15:29;;;;;;;2.63;1.70;;;16.80;45.50;;;;;;5096522;28;20500;-58
2021/04/27 10:18:00;;;;;;;2.83;2.25;;;17.20;46.70;;;;;;5114930;28;20044;-59
2021/04/27 10:20:26;;;;;;;6.00;2.45;;;17.50;45.10;;;;;;5114880;28;20105;-58
2021/04/27 10:22:53;;;;;;;3.58;2.05;;;17.20;43.60;;;;;;5114460;28;20067;-59
2021/04/27 10:25:27;;;;;;;7.15;2.10;;;17.40;45.30;;;;;;5096401;28;20062;-58
2021/04/27 10:27:58;;;;;;;2.50;1.75;;;17.40;43.20;;;;;;5114562;28;20048;-59
2021/04/27 10:30:23;;;;;;;3.33;1.95;;;17.10;42.60;;;;;;5114578;28;20074;-59
2021/04/27 10:33:01;;;;;;;3.47;2.10;;;17.10;43.80;;;;;;5114728;28;20075;-59
2021/04/27 10:35:32;;;;;;;3.95;2.00;;;16.80;43.00;;;;;;5114418;28;20059;-59
2021/04/27 10:38:08;;;;;;;2.83;1.67;;;17.10;44.00;;;;;;5114440;28;20047;-59
2021/04/27 10:41:01;;;;;;;4.40;1.92;;;17.40;42.40;;;;;;5114294;28;20039;-60
2021/04/27 10:43:27;;;;;;;5.53;1.83;;;17.50;43.50;;;;;;5114309;28;20079;-59
2021/04/27 10:45:56;;;;;;;4.25;2.10;;;17.40;44.40;;;;;;5114239;28;20044;-59
2021/04/27 10:48:35;;;;;;;4.30;2.25;;;17.30;42.50;;;;;;5114117;28;20043;-59
2021/04/27 10:51:19;;;;;;;3.38;2.30;;;17.00;40.70;;;;;;5114243;28;20048;-59
2021/04/27 10:54:19;;;;;;;6.03;1.85;;;17.40;43.00;;;;;;5114038;28;20057;-59
2021/04/27 10:56:55;;;;;;;4.32;2.20;;;17.20;40.80;;;;;;5113970;28;20527;-59
2021/04/27 10:59:26;;;;;;;3.08;1.90;;;17.10;41.10;;;;;;5114338;28;20096;-59
2021/04/27 11:02:15;;;;;;;3.03;1.58;;;17.70;43.20;;;;;;5113671;28;20129;-59
2021/04/27 11:04:43;;;;;;;3.92;1.90;;;17.60;43.10;;;;;;5114092;28;20043;-60
2021/04/27 11:07:24;;;;;;;2.78;1.92;;;17.60;42.20;;;;;;5114039;28;20370;-59
2021/04/27 11:10:05;;;;;;;7.32;2.65;;;17.50;41.60;;;;;;5113893;28;20035;-59
2021/04/27 11:12:31;;;;;;;3.40;2.00;;;17.60;42.20;;;;;;5113711;28;20043;-59
2021/04/27 11:15:03;;;;;;;4.75;2.00;;;17.70;40.90;;;;;;5113753;28;20047;-58
2021/04/27 11:17:35;;;;;;;3.00;1.90;;;17.30;40.60;;;;;;5113521;28;20119;-59
2021/04/27 11:20:25;;;;;;;3.83;2.17;;;17.40;42.20;;;;;;5113629;28;20420;-59
2021/04/27 11:22:51;;;;;;;4.72;1.73;;;17.30;40.90;;;;;;5110697;28;20051;-59
2021/04/27 11:25:34;;;;;;;4.13;1.77;;;17.50;40.50;;;;;;5113482;28;20035;-58
2021/04/27 11:28:01;;;;;;;4.60;2.00;;;17.70;40.20;;;;;;5113149;28;20046;-59
2021/04/27 11:30:34;;;;;;;6.15;2.30;;;17.50;40.60;;;;;;5113334;28;20043;-58
2021/04/27 11:33:07;;;;;;;5.65;2.17;;;17.80;41.90;;;;;;5113400;28;20048;-59
2021/04/27 11:35:41;;;;;;;6.20;2.65;;;17.70;40.60;;;;;;5113529;28;20046;-59
2021/04/27 11:38:07;;;;;;;3.55;1.58;;;17.60;41.60;;;;;;5113262;28;20035;-59
2021/04/27 11:40:32;;;;;;;3.40;1.65;;;17.80;41.70;;;;;;5113092;28;20043;-59
2021/04/27 11:43:04;;;;;;;5.50;1.95;;;18.00;40.70;;;;;;5113005;28;20052;-59
2021/04/27 11:45:40;;;;;;;3.97;1.95;;;18.10;41.00;;;;;;5113088;28;20046;-60
2021/04/27 11:48:14;;;;;;;7.53;2.25;;;18.10;39.50;;;;;;5094217;28;20046;-59
2021/04/27 11:50:41;;;;;;;13.80;2.47;;;18.10;39.90;;;;;;5113308;28;20062;-59
2021/04/27 11:53:15;;;;;;;4.57;1.85;;;17.90;41.50;;;;;;5112702;28;20048;-60
2021/04/27 11:55:45;;;;;;;4.30;2.08;;;18.00;40.50;;;;;;5095542;28;20032;-59
2021/04/27 11:58:23;;;;;;;5.28;2.33;;;17.60;38.50;;;;;;5112603;28;20031;-59
2021/04/27 12:01:03;;;;;;;2.63;2.15;;;17.80;40.10;;;;;;5112590;28;20035;-59
2021/04/27 12:03:31;;;;;;;3.00;1.90;;;18.00;40.70;;;;;;5093413;28;20043;-60
2021/04/27 12:05:58;;;;;;;6.68;1.92;;;18.10;39.90;;;;;;5112732;28;20066;-59
2021/04/27 12:08:27;;;;;;;;;;;18.20;39.30;;;;;;5113317;28;20071;-59
2021/04/27 12:11:29;;;;;;;4.28;2.38;;;18.30;39.50;;;;;;5087159;28;19923;-59
2021/04/27 12:14:02;;;;;;;4.10;1.58;;;18.40;39.30;;;;;;5093655;28;20043;-59
2021/04/27 12:16:41;;;;;;;4.93;1.80;;;18.50;39.90;;;;;;5112319;28;20070;-60
2021/04/27 12:19:16;;;;;;;2.95;1.73;;;18.50;40.30;;;;;;5112428;28;20088;-60
2021/04/27 12:21:58;;;;;;;3.95;2.00;;;18.40;40.50;;;;;;5111380;28;20038;-60
2021/04/27 12:24:30;;;;;;;2.58;1.90;;;18.80;38.60;;;;;;5073942;28;20048;-59
2021/04/27 12:27:04;;;;;;;5.70;2.50;;;18.10;39.10;;;;;;5090298;28;20557;-59
2021/04/27 12:29:30;;;;;;;4.05;2.33;;;18.10;39.10;;;;;;5057070;28;20409;-59
2021/04/27 12:32:03;;;;;;;6.07;2.00;;;18.30;39.30;;;;;;5091902;28;20032;-59
2021/04/27 12:34:28;;;;;;;4.93;1.70;;;18.20;39.30;;;;;;5091841;28;20378;-59
2021/04/27 12:36:54;;;;;;;2.95;1.90;;;17.80;38.50;;;;;;5092154;28;20047;-59
2021/04/27 12:39:20;;;;;;;3.25;2.05;;;18.10;40.50;;;;;;5091907;28;20474;-60
2021/04/27 12:41:46;;;;;;;6.88;2.42;;;18.10;40.20;;;;;;5091997;28;20051;-60
2021/04/27 12:44:30;;;;;;;4.00;2.35;;;17.80;40.10;;;;;;5104132;28;20040;-60
2021/04/27 12:46:58;;;;;;;3.10;2.17;;;18.20;39.90;;;;;;5093633;28;20043;-59
2021/04/27 12:49:33;;;;;;;3.90;2.40;;;18.30;41.50;;;;;;5111071;28;20088;-59
2021/04/27 12:52:07;;;;;;;5.32;2.55;;;18.30;39.20;;;;;;5073642;28;20040;-60
2021/04/27 12:54:33;;;;;;;7.03;2.20;;;18.30;39.20;;;;;;5106338;28;20059;-59
2021/04/27 12:57:18;;;;;;;6.88;2.28;;;18.40;39.40;;;;;;5076070;28;20046;-59